sensor_id;sensor_type;location;lat;lon;timestamp;temperature;humidity
15815;DHT22;8008;50.024;8.172;2023-06-10T03:02:20;21.50;64.20
15815;DHT22;8008;50.024;8.172;2023-06-10T03:04:51;21.50;64.30
15815;DHT22;8008;50.024;8.172;2023-06-10T03:07:20;21.50;64.20
15815;DHT22;8008;50.024;8.172;2023-06-10T03:09:50;21.40;64.00
15815;DHT22;8008;50.024;8.172;2023-06-10T03:12:20;21.40;65.00
15815;DHT22;8008;50.024;8.172;2023-06-10T03:14:48;21.40;64.60
15815;DHT22;8008;50.024;8.172;2023-06-10T03:17:17;21.40;64.60
15815;DHT22;8008;50.024;8.172;2023-06-10T03:19:46;21.30;64.20
15815;DHT22;8008;50.024;8.172;2023-06-10T03:22:15;21.30;64.30
15815;DHT22;8008;50.024;8.172;2023-06-10T03:24:54;21.20;63.60
15815;DHT22;8008;50.024;8.172;2023-06-10T03:27:24;21.20;63.20
15815;DHT22;8008;50.024;8.172;2023-06-10T03:29:58;21.20;63.90
15815;DHT22;8008;50.024;8.172;2023-06-10T03:32:27;21.20;65.10
15815;DHT22;8008;50.024;8.172;2023-06-10T03:34:57;21.10;65.50
15815;DHT22;8008;50.024;8.172;2023-06-10T03:37:27;21.00;65.60
15815;DHT22;8008;50.024;8.172;2023-06-10T03:39:55;21.00;65.10
15815;DHT22;8008;50.024;8.172;2023-06-10T03:42:23;20.90;64.90
15815;DHT22;8008;50.024;8.172;2023-06-10T03:44:52;20.80;64.70
15815;DHT22;8008;50.024;8.172;2023-06-10T03:47:20;20.70;65.10
15815;DHT22;8008;50.024;8.172;2023-06-10T03:49:48;20.60;66.10
15815;DHT22;8008;50.024;8.172;2023-06-10T03:52:18;20.50;66.30
15815;DHT22;8008;50.024;8.172;2023-06-10T03:54:46;20.40;66.00
15815;DHT22;8008;50.024;8.172;2023-06-10T03:57:14;20.30;65.50
15815;DHT22;8008;50.024;8.172;2023-06-10T03:59:42;20.10;65.80
15815;DHT22;8008;50.024;8.172;2023-06-10T04:02:10;20.20;65.90
15815;DHT22;8008;50.024;8.172;2023-06-10T04:04:38;20.10;65.70
15815;DHT22;8008;50.024;8.172;2023-06-10T04:07:06;20.00;65.70
15815;DHT22;8008;50.024;8.172;2023-06-10T04:09:36;19.90;65.80
15815;DHT22;8008;50.024;8.172;2023-06-10T04:12:06;19.90;66.10
15815;DHT22;8008;50.024;8.172;2023-06-10T04:14:36;19.90;67.00
15815;DHT22;8008;50.024;8.172;2023-06-10T04:17:05;19.80;67.90
15815;DHT22;8008;50.024;8.172;2023-06-10T04:19:36;19.80;68.60
15815;DHT22;8008;50.024;8.172;2023-06-10T04:22:04;19.80;68.80
15815;DHT22;8008;50.024;8.172;2023-06-10T04:24:32;19.70;69.30
15815;DHT22;8008;50.024;8.172;2023-06-10T04:27:02;19.70;69.60
15815;DHT22;8008;50.024;8.172;2023-06-10T04:29:30;19.70;69.70
15815;DHT22;8008;50.024;8.172;2023-06-10T04:31:58;19.80;69.80
15815;DHT22;8008;50.024;8.172;2023-06-10T04:34:30;19.70;70.20
15815;DHT22;8008;50.024;8.172;2023-06-10T04:36:58;19.70;70.40
15815;DHT22;8008;50.024;8.172;2023-06-10T04:39:26;19.70;70.20
15815;DHT22;8008;50.024;8.172;2023-06-10T04:41:55;19.70;70.40
15815;DHT22;8008;50.024;8.172;2023-06-10T04:44:24;19.90;70.60
15815;DHT22;8008;50.024;8.172;2023-06-10T04:46:53;20.00;70.70
15815;DHT22;8008;50.024;8.172;2023-06-10T04:49:22;19.80;70.80
15815;DHT22;8008;50.024;8.172;2023-06-10T04:51:50;19.80;70.90
15815;DHT22;8008;50.024;8.172;2023-06-10T04:54:19;19.80;70.80
15815;DHT22;8008;50.024;8.172;2023-06-10T04:56:46;19.80;70.80
15815;DHT22;8008;50.024;8.172;2023-06-10T04:59:14;19.80;70.60
15815;DHT22;8008;50.024;8.172;2023-06-10T05:01:44;20.00;70.60
15815;DHT22;8008;50.024;8.172;2023-06-10T05:04:12;20.00;70.90
15815;DHT22;8008;50.024;8.172;2023-06-10T05:06:40;20.00;71.10
15815;DHT22;8008;50.024;8.172;2023-06-10T05:09:07;20.10;71.20
15815;DHT22;8008;50.024;8.172;2023-06-10T05:11:35;20.10;71.20
15815;DHT22;8008;50.024;8.172;2023-06-10T05:14:03;20.20;71.10
15815;DHT22;8008;50.024;8.172;2023-06-10T05:16:31;20.20;70.80
15815;DHT22;8008;50.024;8.172;2023-06-10T05:19:01;20.30;70.90
15815;DHT22;8008;50.024;8.172;2023-06-10T05:21:33;20.30;70.90
15815;DHT22;8008;50.024;8.172;2023-06-10T05:24:02;20.40;71.70
15815;DHT22;8008;50.024;8.172;2023-06-10T05:26:30;20.40;72.10
15815;DHT22;8008;50.024;8.172;2023-06-10T05:28:59;20.50;72.60
15815;DHT22;8008;50.024;8.172;2023-06-10T05:31:27;20.60;72.90
15815;DHT22;8008;50.024;8.172;2023-06-10T05:33:55;20.70;72.40
15815;DHT22;8008;50.024;8.172;2023-06-10T05:36:25;20.70;71.80
15815;DHT22;8008;50.024;8.172;2023-06-10T05:38:53;20.80;71.70
15815;DHT22;8008;50.024;8.172;2023-06-10T05:41:21;20.90;71.60
15815;DHT22;8008;50.024;8.172;2023-06-10T05:43:49;20.90;71.70
15815;DHT22;8008;50.024;8.172;2023-06-10T05:46:17;21.10;71.60
15815;DHT22;8008;50.024;8.172;2023-06-10T05:48:45;21.10;71.90
15815;DHT22;8008;50.024;8.172;2023-06-10T05:51:13;21.30;72.00
15815;DHT22;8008;50.024;8.172;2023-06-10T05:53:42;21.50;71.60
15815;DHT22;8008;50.024;8.172;2023-06-10T05:56:13;21.50;70.90
15815;DHT22;8008;50.024;8.172;2023-06-10T05:58:41;21.60;70.70
15815;DHT22;8008;50.024;8.172;2023-06-10T06:01:09;21.70;71.10
15815;DHT22;8008;50.024;8.172;2023-06-10T06:03:37;21.80;70.50
15815;DHT22;8008;50.024;8.172;2023-06-10T06:06:05;22.00;70.40
15815;DHT22;8008;50.024;8.172;2023-06-10T06:08:33;22.10;70.30
15815;DHT22;8008;50.024;8.172;2023-06-10T06:11:02;22.20;69.10
15815;DHT22;8008;50.024;8.172;2023-06-10T06:13:30;22.40;67.50
15815;DHT22;8008;50.024;8.172;2023-06-10T06:15:58;22.50;67.30
15815;DHT22;8008;50.024;8.172;2023-06-10T06:18:26;22.60;66.30
15815;DHT22;8008;50.024;8.172;2023-06-10T06:20:55;22.70;64.80
15815;DHT22;8008;50.024;8.172;2023-06-10T06:23:23;22.80;64.20
15815;DHT22;8008;50.024;8.172;2023-06-10T06:25:51;22.80;63.50
15815;DHT22;8008;50.024;8.172;2023-06-10T06:28:20;22.90;63.50
15815;DHT22;8008;50.024;8.172;2023-06-10T06:30:49;23.00;63.30
15815;DHT22;8008;50.024;8.172;2023-06-10T06:33:17;23.10;62.30
15815;DHT22;8008;50.024;8.172;2023-06-10T06:35:45;23.10;61.70
15815;DHT22;8008;50.024;8.172;2023-06-10T06:38:13;23.20;62.10
15815;DHT22;8008;50.024;8.172;2023-06-10T06:40:42;23.30;61.30
15815;DHT22;8008;50.024;8.172;2023-06-10T06:43:10;23.30;61.00
15815;DHT22;8008;50.024;8.172;2023-06-10T06:45:48;23.40;60.80
15815;DHT22;8008;50.024;8.172;2023-06-10T06:48:16;23.50;60.60
15815;DHT22;8008;50.024;8.172;2023-06-10T06:50:44;23.50;60.00
15815;DHT22;8008;50.024;8.172;2023-06-10T06:53:13;23.50;60.30
15815;DHT22;8008;50.024;8.172;2023-06-10T06:55:41;23.60;59.80
15815;DHT22;8008;50.024;8.172;2023-06-10T06:58:12;23.60;60.20
15815;DHT22;8008;50.024;8.172;2023-06-10T07:00:39;23.70;59.20
15815;DHT22;8008;50.024;8.172;2023-06-10T07:03:09;23.80;59.30
15815;DHT22;8008;50.024;8.172;2023-06-10T07:05:38;23.80;59.10
15815;DHT22;8008;50.024;8.172;2023-06-10T07:08:06;23.90;59.20
15815;DHT22;8008;50.024;8.172;2023-06-10T07:10:34;24.00;58.60
15815;DHT22;8008;50.024;8.172;2023-06-10T07:13:02;24.00;58.50
15815;DHT22;8008;50.024;8.172;2023-06-10T07:15:30;24.10;58.00
15815;DHT22;8008;50.024;8.172;2023-06-10T07:17:59;24.10;58.20
15815;DHT22;8008;50.024;8.172;2023-06-10T07:20:28;24.10;58.00
15815;DHT22;8008;50.024;8.172;2023-06-10T07:22:56;24.20;57.90
15815;DHT22;8008;50.024;8.172;2023-06-10T07:25:24;24.20;57.30
15815;DHT22;8008;50.024;8.172;2023-06-10T07:27:52;24.30;57.10
15815;DHT22;8008;50.024;8.172;2023-06-10T07:30:20;24.30;57.20
15815;DHT22;8008;50.024;8.172;2023-06-10T07:32:48;24.30;57.30
15815;DHT22;8008;50.024;8.172;2023-06-10T07:35:16;24.30;57.20
15815;DHT22;8008;50.024;8.172;2023-06-10T07:37:46;24.40;57.20
15815;DHT22;8008;50.024;8.172;2023-06-10T07:40:14;24.50;56.90
15815;DHT22;8008;50.024;8.172;2023-06-10T07:42:42;24.50;56.80
15815;DHT22;8008;50.024;8.172;2023-06-10T07:45:10;24.50;57.10
15815;DHT22;8008;50.024;8.172;2023-06-10T07:47:38;24.50;57.00
15815;DHT22;8008;50.024;8.172;2023-06-10T07:50:07;24.60;56.80
15815;DHT22;8008;50.024;8.172;2023-06-10T07:52:35;24.60;57.30
15815;DHT22;8008;50.024;8.172;2023-06-10T07:55:05;24.60;57.20
15815;DHT22;8008;50.024;8.172;2023-06-10T07:57:34;24.70;57.30
15815;DHT22;8008;50.024;8.172;2023-06-10T08:00:04;24.70;57.30
15815;DHT22;8008;50.024;8.172;2023-06-10T08:02:38;24.70;57.00
15815;DHT22;8008;50.024;8.172;2023-06-10T08:05:07;24.80;57.10
15815;DHT22;8008;50.024;8.172;2023-06-10T08:07:36;24.80;56.70
15815;DHT22;8008;50.024;8.172;2023-06-10T08:10:06;24.80;57.40
15815;DHT22;8008;50.024;8.172;2023-06-10T08:12:35;24.90;57.20
15815;DHT22;8008;50.024;8.172;2023-06-10T08:15:04;24.90;56.80
15815;DHT22;8008;50.024;8.172;2023-06-10T08:17:32;25.00;57.00
15815;DHT22;8008;50.024;8.172;2023-06-10T08:20:01;25.00;57.20
15815;DHT22;8008;50.024;8.172;2023-06-10T08:22:29;25.10;57.30
15815;DHT22;8008;50.024;8.172;2023-06-10T08:24:57;25.10;57.10
15815;DHT22;8008;50.024;8.172;2023-06-10T08:27:26;25.20;56.90
15815;DHT22;8008;50.024;8.172;2023-06-10T08:29:54;25.30;56.80
15815;DHT22;8008;50.024;8.172;2023-06-10T08:32:22;25.30;56.70
15815;DHT22;8008;50.024;8.172;2023-06-10T08:34:50;25.30;56.80
15815;DHT22;8008;50.024;8.172;2023-06-10T08:37:18;25.30;56.30
15815;DHT22;8008;50.024;8.172;2023-06-10T08:39:46;25.40;56.50
15815;DHT22;8008;50.024;8.172;2023-06-10T08:42:22;25.40;57.00
15815;DHT22;8008;50.024;8.172;2023-06-10T08:44:54;25.50;57.00
15815;DHT22;8008;50.024;8.172;2023-06-10T08:47:24;25.50;56.40
15815;DHT22;8008;50.024;8.172;2023-06-10T08:49:52;25.60;56.50
15815;DHT22;8008;50.024;8.172;2023-06-10T08:52:24;25.60;56.40
15815;DHT22;8008;50.024;8.172;2023-06-10T08:54:57;25.60;55.90
15815;DHT22;8008;50.024;8.172;2023-06-10T08:57:27;25.70;56.40
15815;DHT22;8008;50.024;8.172;2023-06-10T08:59:57;25.70;56.10
15815;DHT22;8008;50.024;8.172;2023-06-10T09:02:25;25.80;56.40
15815;DHT22;8008;50.024;8.172;2023-06-10T09:04:56;25.80;56.40
15815;DHT22;8008;50.024;8.172;2023-06-10T09:07:23;25.90;56.60
15815;DHT22;8008;50.024;8.172;2023-06-10T09:09:53;25.90;56.80
15815;DHT22;8008;50.024;8.172;2023-06-10T09:12:22;26.00;56.90
15815;DHT22;8008;50.024;8.172;2023-06-10T09:14:50;26.10;55.90
15815;DHT22;8008;50.024;8.172;2023-06-10T09:17:19;26.10;55.90
15815;DHT22;8008;50.024;8.172;2023-06-10T09:19:47;26.20;54.60
15815;DHT22;8008;50.024;8.172;2023-06-10T09:22:16;26.20;54.40
15815;DHT22;8008;50.024;8.172;2023-06-10T09:24:44;26.30;53.60
15815;DHT22;8008;50.024;8.172;2023-06-10T09:27:13;26.30;54.10
15815;DHT22;8008;50.024;8.172;2023-06-10T09:29:51;26.30;54.50
15815;DHT22;8008;50.024;8.172;2023-06-10T09:32:21;26.40;54.70
15815;DHT22;8008;50.024;8.172;2023-06-10T09:34:49;26.40;55.00
15815;DHT22;8008;50.024;8.172;2023-06-10T09:37:20;26.50;54.60
15815;DHT22;8008;50.024;8.172;2023-06-10T09:40:02;26.50;54.70
15815;DHT22;8008;50.024;8.172;2023-06-10T09:42:34;26.60;54.50
15815;DHT22;8008;50.024;8.172;2023-06-10T09:45:03;26.60;54.90
15815;DHT22;8008;50.024;8.172;2023-06-10T09:47:33;26.80;54.60
15815;DHT22;8008;50.024;8.172;2023-06-10T09:50:01;26.90;55.40
15815;DHT22;8008;50.024;8.172;2023-06-10T09:52:30;26.90;54.40
15815;DHT22;8008;50.024;8.172;2023-06-10T09:55:01;26.90;54.70
15815;DHT22;8008;50.024;8.172;2023-06-10T09:57:31;27.00;54.20
15815;DHT22;8008;50.024;8.172;2023-06-10T10:00:04;27.00;54.70
15815;DHT22;8008;50.024;8.172;2023-06-10T10:02:44;27.10;55.00
15815;DHT22;8008;50.024;8.172;2023-06-10T10:05:14;27.20;54.40
15815;DHT22;8008;50.024;8.172;2023-06-10T10:07:44;27.30;54.70
15815;DHT22;8008;50.024;8.172;2023-06-10T10:10:13;27.30;54.20
15815;DHT22;8008;50.024;8.172;2023-06-10T10:12:43;27.40;54.40
15815;DHT22;8008;50.024;8.172;2023-06-10T10:15:15;27.60;53.80
15815;DHT22;8008;50.024;8.172;2023-06-10T10:17:49;27.80;54.10
15815;DHT22;8008;50.024;8.172;2023-06-10T10:20:27;28.00;53.60
15815;DHT22;8008;50.024;8.172;2023-06-10T10:22:57;28.40;53.00
15815;DHT22;8008;50.024;8.172;2023-06-10T10:25:28;28.70;52.40
15815;DHT22;8008;50.024;8.172;2023-06-10T10:28:02;29.00;52.30
15815;DHT22;8008;50.024;8.172;2023-06-10T10:30:30;29.10;52.00
15815;DHT22;8008;50.024;8.172;2023-06-10T10:33:06;29.30;51.40
15815;DHT22;8008;50.024;8.172;2023-06-10T10:35:38;29.50;52.00
15815;DHT22;8008;50.024;8.172;2023-06-10T10:38:07;29.80;51.70
15815;DHT22;8008;50.024;8.172;2023-06-10T10:40:37;30.10;51.70
15815;DHT22;8008;50.024;8.172;2023-06-10T10:43:06;30.30;50.50
15815;DHT22;8008;50.024;8.172;2023-06-10T10:45:34;30.40;50.70
15815;DHT22;8008;50.024;8.172;2023-06-10T10:48:08;30.60;50.60
15815;DHT22;8008;50.024;8.172;2023-06-10T10:50:39;30.70;50.10
15815;DHT22;8008;50.024;8.172;2023-06-10T10:53:08;30.90;50.30
15815;DHT22;8008;50.024;8.172;2023-06-10T10:55:36;31.10;50.10
15815;DHT22;8008;50.024;8.172;2023-06-10T10:58:06;31.30;49.90
15815;DHT22;8008;50.024;8.172;2023-06-10T11:00:35;31.30;50.10
15815;DHT22;8008;50.024;8.172;2023-06-10T11:03:06;31.50;49.70
15815;DHT22;8008;50.024;8.172;2023-06-10T11:05:39;31.70;49.90
15815;DHT22;8008;50.024;8.172;2023-06-10T11:08:09;31.80;49.40
15815;DHT22;8008;50.024;8.172;2023-06-10T11:10:38;31.80;49.80
15815;DHT22;8008;50.024;8.172;2023-06-10T11:13:08;32.00;50.00
15815;DHT22;8008;50.024;8.172;2023-06-10T11:15:42;32.00;48.60
15815;DHT22;8008;50.024;8.172;2023-06-10T11:18:20;32.10;48.40
15815;DHT22;8008;50.024;8.172;2023-06-10T11:20:55;32.20;48.60
15815;DHT22;8008;50.024;8.172;2023-06-10T11:23:40;32.20;48.60
15815;DHT22;8008;50.024;8.172;2023-06-10T11:29:06;32.60;47.90
15815;DHT22;8008;50.024;8.172;2023-06-10T11:31:43;32.80;48.10
15815;DHT22;8008;50.024;8.172;2023-06-10T11:34:13;33.00;47.20
15815;DHT22;8008;50.024;8.172;2023-06-10T11:36:42;33.20;47.70
15815;DHT22;8008;50.024;8.172;2023-06-10T11:39:12;33.30;47.30
15815;DHT22;8008;50.024;8.172;2023-06-10T11:41:40;33.30;47.20
15815;DHT22;8008;50.024;8.172;2023-06-10T11:44:09;33.30;47.20
15815;DHT22;8008;50.024;8.172;2023-06-10T11:46:38;33.20;47.10
15815;DHT22;8008;50.024;8.172;2023-06-10T11:49:06;33.30;47.50
15815;DHT22;8008;50.024;8.172;2023-06-10T11:51:37;33.50;46.90
15815;DHT22;8008;50.024;8.172;2023-06-10T11:54:07;33.60;47.00
15815;DHT22;8008;50.024;8.172;2023-06-10T11:56:36;33.80;47.10
15815;DHT22;8008;50.024;8.172;2023-06-10T11:59:05;34.00;47.90
15815;DHT22;8008;50.024;8.172;2023-06-10T12:01:35;34.20;46.50
15815;DHT22;8008;50.024;8.172;2023-06-10T12:04:10;34.20;46.00
15815;DHT22;8008;50.024;8.172;2023-06-10T12:06:40;34.50;46.30
15815;DHT22;8008;50.024;8.172;2023-06-10T12:09:16;34.80;45.60
15815;DHT22;8008;50.024;8.172;2023-06-10T12:11:54;35.00;45.70
15815;DHT22;8008;50.024;8.172;2023-06-10T12:14:51;35.50;45.70
15815;DHT22;8008;50.024;8.172;2023-06-10T12:17:22;35.70;44.50
15815;DHT22;8008;50.024;8.172;2023-06-10T12:19:51;35.90;44.20
15815;DHT22;8008;50.024;8.172;2023-06-10T12:22:20;36.20;44.00
15815;DHT22;8008;50.024;8.172;2023-06-10T12:25:00;36.10;43.70
15815;DHT22;8008;50.024;8.172;2023-06-10T12:27:30;36.50;43.50
15815;DHT22;8008;50.024;8.172;2023-06-10T12:29:59;36.80;43.60
15815;DHT22;8008;50.024;8.172;2023-06-10T12:32:38;37.00;43.00
15815;DHT22;8008;50.024;8.172;2023-06-10T12:35:07;37.50;43.00
15815;DHT22;8008;50.024;8.172;2023-06-10T12:37:38;37.80;42.40
15815;DHT22;8008;50.024;8.172;2023-06-10T12:40:10;38.10;42.00
15815;DHT22;8008;50.024;8.172;2023-06-10T12:42:38;38.20;41.90
15815;DHT22;8008;50.024;8.172;2023-06-10T12:45:07;38.60;41.60
15815;DHT22;8008;50.024;8.172;2023-06-10T12:47:37;38.20;41.70
15815;DHT22;8008;50.024;8.172;2023-06-10T12:50:07;38.20;42.20
15815;DHT22;8008;50.024;8.172;2023-06-10T12:52:35;38.50;41.10
15815;DHT22;8008;50.024;8.172;2023-06-10T12:55:05;39.00;40.90
15815;DHT22;8008;50.024;8.172;2023-06-10T12:57:34;39.30;39.70
15815;DHT22;8008;50.024;8.172;2023-06-10T13:00:02;39.80;39.80
15815;DHT22;8008;50.024;8.172;2023-06-10T13:02:35;40.00;39.70
15815;DHT22;8008;50.024;8.172;2023-06-10T13:05:03;39.90;39.40
15815;DHT22;8008;50.024;8.172;2023-06-10T13:07:31;40.10;39.40
15815;DHT22;8008;50.024;8.172;2023-06-10T13:09:59;40.40;39.10
15815;DHT22;8008;50.024;8.172;2023-06-10T13:12:29;40.80;38.30
15815;DHT22;8008;50.024;8.172;2023-06-10T13:15:14;40.90;38.70
15815;DHT22;8008;50.024;8.172;2023-06-10T13:17:42;40.50;38.40
15815;DHT22;8008;50.024;8.172;2023-06-10T13:20:12;40.70;38.70
15815;DHT22;8008;50.024;8.172;2023-06-10T13:22:40;40.60;38.60
15815;DHT22;8008;50.024;8.172;2023-06-10T13:25:09;40.90;38.30
15815;DHT22;8008;50.024;8.172;2023-06-10T13:27:39;41.50;38.20
15815;DHT22;8008;50.024;8.172;2023-06-10T13:30:10;42.00;38.50
15815;DHT22;8008;50.024;8.172;2023-06-10T13:32:38;41.70;38.60
15815;DHT22;8008;50.024;8.172;2023-06-10T13:35:07;40.80;38.50
15815;DHT22;8008;50.024;8.172;2023-06-10T13:37:36;41.10;38.10
15815;DHT22;8008;50.024;8.172;2023-06-10T13:40:05;42.00;38.10
15815;DHT22;8008;50.024;8.172;2023-06-10T13:42:34;42.50;37.90
15815;DHT22;8008;50.024;8.172;2023-06-10T13:45:06;43.00;37.40
15815;DHT22;8008;50.024;8.172;2023-06-10T13:47:36;43.40;37.10
15815;DHT22;8008;50.024;8.172;2023-06-10T13:50:05;44.00;37.00
15815;DHT22;8008;50.024;8.172;2023-06-10T13:52:34;44.30;37.10
15815;DHT22;8008;50.024;8.172;2023-06-10T13:55:02;44.70;37.00
15815;DHT22;8008;50.024;8.172;2023-06-10T13:57:30;45.20;36.90
15815;DHT22;8008;50.024;8.172;2023-06-10T13:59:58;45.40;36.80
15815;DHT22;8008;50.024;8.172;2023-06-10T14:02:27;45.60;36.90
15815;DHT22;8008;50.024;8.172;2023-06-10T14:04:55;45.90;37.00
15815;DHT22;8008;50.024;8.172;2023-06-10T14:07:23;45.60;36.50
15815;DHT22;8008;50.024;8.172;2023-06-10T14:09:52;45.30;36.90
15815;DHT22;8008;50.024;8.172;2023-06-10T14:12:20;45.10;36.60
15815;DHT22;8008;50.024;8.172;2023-06-10T14:14:48;45.00;36.70
15815;DHT22;8008;50.024;8.172;2023-06-10T14:17:16;44.90;36.80
15815;DHT22;8008;50.024;8.172;2023-06-10T14:19:46;44.90;36.80
15815;DHT22;8008;50.024;8.172;2023-06-10T14:22:13;45.30;35.80
15815;DHT22;8008;50.024;8.172;2023-06-10T14:24:41;45.00;36.30
15815;DHT22;8008;50.024;8.172;2023-06-10T14:27:09;45.30;36.20
15815;DHT22;8008;50.024;8.172;2023-06-10T14:29:37;45.20;36.40
15815;DHT22;8008;50.024;8.172;2023-06-10T14:32:06;45.40;36.00
15815;DHT22;8008;50.024;8.172;2023-06-10T14:34:35;45.60;36.10
15815;DHT22;8008;50.024;8.172;2023-06-10T14:37:05;46.10;36.00
15815;DHT22;8008;50.024;8.172;2023-06-10T14:39:34;45.90;35.80
15815;DHT22;8008;50.024;8.172;2023-06-10T14:42:03;46.10;35.60
15815;DHT22;8008;50.024;8.172;2023-06-10T14:44:31;46.60;35.30
15815;DHT22;8008;50.024;8.172;2023-06-10T14:46:59;46.50;35.10
15815;DHT22;8008;50.024;8.172;2023-06-10T14:49:27;46.70;35.80
15815;DHT22;8008;50.024;8.172;2023-06-10T14:51:55;46.60;35.00
15815;DHT22;8008;50.024;8.172;2023-06-10T14:54:24;46.80;35.20
15815;DHT22;8008;50.024;8.172;2023-06-10T14:56:52;46.50;35.10
15815;DHT22;8008;50.024;8.172;2023-06-10T14:59:20;46.10;35.60
15815;DHT22;8008;50.024;8.172;2023-06-10T15:01:48;45.90;35.30
15815;DHT22;8008;50.024;8.172;2023-06-10T15:04:16;45.90;35.50
15815;DHT22;8008;50.024;8.172;2023-06-10T15:06:48;46.10;35.70
15815;DHT22;8008;50.024;8.172;2023-06-10T15:09:16;46.10;36.00
15815;DHT22;8008;50.024;8.172;2023-06-10T15:11:46;45.90;36.20
15815;DHT22;8008;50.024;8.172;2023-06-10T15:14:14;45.40;36.20
15815;DHT22;8008;50.024;8.172;2023-06-10T15:16:42;44.50;36.00
15815;DHT22;8008;50.024;8.172;2023-06-10T15:19:10;43.00;36.30
15815;DHT22;8008;50.024;8.172;2023-06-10T15:21:38;41.60;36.80
15815;DHT22;8008;50.024;8.172;2023-06-10T15:24:06;40.30;37.10
15815;DHT22;8008;50.024;8.172;2023-06-10T15:26:34;39.40;38.00
15815;DHT22;8008;50.024;8.172;2023-06-10T15:29:04;39.00;38.40
15815;DHT22;8008;50.024;8.172;2023-06-10T15:31:33;38.50;38.90
15815;DHT22;8008;50.024;8.172;2023-06-10T15:34:01;38.10;39.40
15815;DHT22;8008;50.024;8.172;2023-06-10T15:36:29;38.90;39.80
15815;DHT22;8008;50.024;8.172;2023-06-10T15:39:01;40.10;39.40
15815;DHT22;8008;50.024;8.172;2023-06-10T15:41:30;41.30;38.40
15815;DHT22;8008;50.024;8.172;2023-06-10T15:43:58;42.00;37.50
15815;DHT22;8008;50.024;8.172;2023-06-10T15:46:28;42.10;37.00
15815;DHT22;8008;50.024;8.172;2023-06-10T15:48:57;41.30;36.90
15815;DHT22;8008;50.024;8.172;2023-06-10T15:51:25;40.30;37.40
15815;DHT22;8008;50.024;8.172;2023-06-10T15:53:53;39.30;38.10
15815;DHT22;8008;50.024;8.172;2023-06-10T15:56:21;38.40;38.40
15815;DHT22;8008;50.024;8.172;2023-06-10T15:58:49;37.70;39.00
15815;DHT22;8008;50.024;8.172;2023-06-10T16:01:18;37.20;39.20
15815;DHT22;8008;50.024;8.172;2023-06-10T16:03:48;36.60;39.80
15815;DHT22;8008;50.024;8.172;2023-06-10T16:06:16;36.30;40.50
15815;DHT22;8008;50.024;8.172;2023-06-10T16:08:45;36.10;40.50
15815;DHT22;8008;50.024;8.172;2023-06-10T16:11:13;35.80;40.60
15815;DHT22;8008;50.024;8.172;2023-06-10T16:13:42;35.40;40.90
15815;DHT22;8008;50.024;8.172;2023-06-10T16:16:10;35.20;41.10
15815;DHT22;8008;50.024;8.172;2023-06-10T16:18:38;35.10;40.80
15815;DHT22;8008;50.024;8.172;2023-06-10T16:21:08;35.00;41.10
15815;DHT22;8008;50.024;8.172;2023-06-10T16:23:36;34.80;41.10
15815;DHT22;8008;50.024;8.172;2023-06-10T16:26:05;34.40;41.20
15815;DHT22;8008;50.024;8.172;2023-06-10T16:28:33;34.30;41.70
15815;DHT22;8008;50.024;8.172;2023-06-10T16:31:01;34.20;42.20
15815;DHT22;8008;50.024;8.172;2023-06-10T16:33:30;34.20;42.20
15815;DHT22;8008;50.024;8.172;2023-06-10T16:35:58;34.20;42.40
15815;DHT22;8008;50.024;8.172;2023-06-10T16:38:28;34.00;42.20
15815;DHT22;8008;50.024;8.172;2023-06-10T16:40:56;33.90;42.00
15815;DHT22;8008;50.024;8.172;2023-06-10T16:43:25;33.80;42.00
15815;DHT22;8008;50.024;8.172;2023-06-10T16:45:53;33.70;41.90
15815;DHT22;8008;50.024;8.172;2023-06-10T16:48:23;33.70;42.10
15815;DHT22;8008;50.024;8.172;2023-06-10T16:50:52;33.50;42.30
15815;DHT22;8008;50.024;8.172;2023-06-10T16:53:20;33.40;42.50
15815;DHT22;8008;50.024;8.172;2023-06-10T16:55:49;33.30;42.90
15815;DHT22;8008;50.024;8.172;2023-06-10T16:58:17;33.20;43.00
15815;DHT22;8008;50.024;8.172;2023-06-10T17:00:46;33.20;43.70
15815;DHT22;8008;50.024;8.172;2023-06-10T17:03:14;33.10;43.10
15815;DHT22;8008;50.024;8.172;2023-06-10T17:05:42;33.00;43.40
15815;DHT22;8008;50.024;8.172;2023-06-10T17:08:10;33.00;43.60
15815;DHT22;8008;50.024;8.172;2023-06-10T17:10:38;32.90;44.00
15815;DHT22;8008;50.024;8.172;2023-06-10T17:13:08;32.90;44.00
15815;DHT22;8008;50.024;8.172;2023-06-10T17:15:35;33.00;43.80
15815;DHT22;8008;50.024;8.172;2023-06-10T17:18:04;32.90;43.90
15815;DHT22;8008;50.024;8.172;2023-06-10T17:20:32;32.90;43.90
15815;DHT22;8008;50.024;8.172;2023-06-10T17:23:00;33.20;43.90
15815;DHT22;8008;50.024;8.172;2023-06-10T17:25:28;33.70;43.60
15815;DHT22;8008;50.024;8.172;2023-06-10T17:27:56;34.50;43.10
15815;DHT22;8008;50.024;8.172;2023-06-10T17:30:26;35.10;42.60
15815;DHT22;8008;50.024;8.172;2023-06-10T17:32:54;35.20;42.10
15815;DHT22;8008;50.024;8.172;2023-06-10T17:35:22;35.30;41.90
15815;DHT22;8008;50.024;8.172;2023-06-10T17:37:50;35.60;42.20
15815;DHT22;8008;50.024;8.172;2023-06-10T17:40:18;35.60;42.30
15815;DHT22;8008;50.024;8.172;2023-06-10T17:42:46;35.00;42.40
15815;DHT22;8008;50.024;8.172;2023-06-10T17:45:14;34.50;42.80
15815;DHT22;8008;50.024;8.172;2023-06-10T17:47:44;33.90;43.50
15815;DHT22;8008;50.024;8.172;2023-06-10T17:50:12;33.50;44.10
15815;DHT22;8008;50.024;8.172;2023-06-10T17:52:44;33.20;44.40
15815;DHT22;8008;50.024;8.172;2023-06-10T17:55:12;32.90;45.00
15815;DHT22;8008;50.024;8.172;2023-06-10T17:57:40;32.80;45.40
15815;DHT22;8008;50.024;8.172;2023-06-10T18:00:09;32.50;45.30
15815;DHT22;8008;50.024;8.172;2023-06-10T18:02:38;32.30;45.30
15815;DHT22;8008;50.024;8.172;2023-06-10T18:05:08;32.00;45.40
15815;DHT22;8008;50.024;8.172;2023-06-10T18:07:37;31.90;45.60
15815;DHT22;8008;50.024;8.172;2023-06-10T18:10:05;31.70;45.90
15815;DHT22;8008;50.024;8.172;2023-06-10T18:12:34;31.50;46.80
15815;DHT22;8008;50.024;8.172;2023-06-10T18:15:02;31.30;46.30
15815;DHT22;8008;50.024;8.172;2023-06-10T18:17:31;31.20;46.70
15815;DHT22;8008;50.024;8.172;2023-06-10T18:19:59;31.10;47.00
15815;DHT22;8008;50.024;8.172;2023-06-10T18:22:29;31.00;47.20
15815;DHT22;8008;50.024;8.172;2023-06-10T18:24:57;30.90;47.50
15815;DHT22;8008;50.024;8.172;2023-06-10T18:27:25;30.90;47.80
15815;DHT22;8008;50.024;8.172;2023-06-10T18:29:53;30.80;48.10
15815;DHT22;8008;50.024;8.172;2023-06-10T18:32:21;30.60;48.40
15815;DHT22;8008;50.024;8.172;2023-06-10T18:34:49;30.50;48.80
15815;DHT22;8008;50.024;8.172;2023-06-10T18:37:19;30.30;49.30
15815;DHT22;8008;50.024;8.172;2023-06-10T18:39:49;30.30;49.70
15815;DHT22;8008;50.024;8.172;2023-06-10T18:42:17;30.20;50.00
15815;DHT22;8008;50.024;8.172;2023-06-10T18:44:45;30.20;50.20
15815;DHT22;8008;50.024;8.172;2023-06-10T18:47:13;30.20;50.10
15815;DHT22;8008;50.024;8.172;2023-06-10T18:49:41;30.20;50.00
15815;DHT22;8008;50.024;8.172;2023-06-10T18:52:09;30.20;50.00
15815;DHT22;8008;50.024;8.172;2023-06-10T18:54:37;30.20;49.90
15815;DHT22;8008;50.024;8.172;2023-06-10T18:57:07;30.10;49.90
15815;DHT22;8008;50.024;8.172;2023-06-10T18:59:35;30.10;50.10
15815;DHT22;8008;50.024;8.172;2023-06-10T19:02:03;30.10;50.20